Time;durP1;ratioP1;P1;durP2;ratioP2;P2;SDS_P1;SDS_P2;PMS_P1;PMS_P2;Temp;Humidity;BMP_temperature;BMP_pressure;BME280_temperature;BME280_humidity;BME280_pressure;Samples;Min_cycle;Max_cycle;Signal;HPM_P1;HPM_P2
2022/06/26 00:00:05;;;;;;;6.85;3.15;;;;;;;21.20;99.75;99530.53;5039753;28;20044;-83
2022/06/26 00:02:31;;;;;;;4.90;1.85;;;;;;;21.19;97.92;99506.50;5046478;28;20048;-84
2022/06/26 00:04:56;;;;;;;4.45;1.75;;;;;;;21.15;98.21;99519.25;5046261;28;20033;-84
2022/06/26 00:07:22;;;;;;;4.07;2.47;;;;;;;21.08;98.90;99524.09;5047139;28;20124;-83
2022/06/26 00:09:47;;;;;;;3.05;1.80;;;;;;;21.02;99.28;99524.50;5047002;28;20041;-84
2022/06/26 00:12:13;;;;;;;4.38;2.85;;;;;;;20.95;99.51;99522.28;5046645;28;20020;-83
2022/06/26 00:14:38;;;;;;;4.85;3.20;;;;;;;20.85;100.00;99513.91;5046384;28;20832;-83
2022/06/26 00:17:04;;;;;;;4.10;1.58;;;;;;;21.06;100.00;99560.03;5048522;28;20073;-83
2022/06/26 00:19:30;;;;;;;5.25;2.58;;;;;;;20.93;100.00;99539.31;5046223;28;20487;-83
2022/06/26 00:21:55;;;;;;;4.63;2.50;;;;;;;21.18;100.00;99551.25;5031795;28;20045;-84
2022/06/26 00:24:21;;;;;;;5.32;2.78;;;;;;;20.94;100.00;99542.84;5046084;28;20084;-83
2022/06/26 00:26:46;;;;;;;3.25;2.38;;;;;;;20.74;100.00;99518.13;5048852;28;20537;-83
2022/06/26 00:29:12;;;;;;;6.47;3.53;;;;;;;20.91;100.00;99510.88;5046562;28;20111;-84
2022/06/26 00:31:37;;;;;;;3.05;1.80;;;;;;;21.06;100.00;99543.94;5047652;28;20087;-84
2022/06/26 00:34:03;;;;;;;2.67;1.92;;;;;;;20.96;100.00;99530.25;5047249;28;20408;-83
2022/06/26 00:36:29;;;;;;;3.58;2.50;;;;;;;20.80;100.00;99543.69;5047556;28;20040;-82
2022/06/26 00:38:54;;;;;;;4.80;2.45;;;;;;;20.85;100.00;99538.03;5046629;28;20487;-83
2022/06/26 00:41:20;;;;;;;4.90;2.97;;;;;;;21.08;100.00;99567.00;5046520;28;20051;-84
2022/06/26 00:43:45;;;;;;;2.47;1.80;;;;;;;20.97;99.43;99541.81;5032060;28;20116;-83
2022/06/26 00:46:11;;;;;;;4.88;2.58;;;;;;;21.03;100.00;99554.84;5047635;28;20110;-83
2022/06/26 00:48:36;;;;;;;3.42;1.50;;;;;;;20.90;100.00;99570.81;5047692;28;20457;-83
2022/06/26 00:51:03;;;;;;;6.22;4.15;;;;;;;20.83;100.00;99567.63;5047557;28;20028;-82
2022/06/26 00:53:29;;;;;;;2.38;1.73;;;;;;;20.51;100.00;99551.63;5044137;28;20048;-83
2022/06/26 00:55:55;;;;;;;6.15;2.40;;;;;;;20.42;100.00;99535.19;5027234;28;20119;-82
2022/06/26 00:58:21;;;;;;;2.47;1.80;;;;;;;20.37;100.00;99563.13;5027517;28;20507;-82
2022/06/26 01:00:47;;;;;;;3.17;2.15;;;;;;;20.40;100.00;99540.66;5045526;28;20505;-82
2022/06/26 01:03:12;;;;;;;4.18;2.17;;;;;;;20.44;100.00;99569.00;5037565;28;20029;-83
2022/06/26 01:05:39;;;;;;;3.22;2.22;;;;;;;20.60;100.00;99571.63;5047038;28;20098;-83
2022/06/26 01:08:07;;;;;;;4.00;2.42;;;;;;;20.58;100.00;99555.63;5047408;28;20033;-83
2022/06/26 01:10:33;;;;;;;3.28;2.17;;;;;;;20.80;100.00;99567.81;5047001;28;20059;-83
2022/06/26 01:13:00;;;;;;;2.63;1.65;;;;;;;20.72;100.00;99551.34;5040151;28;20036;-83
2022/06/26 01:15:26;;;;;;;4.03;2.35;;;;;;;21.02;99.48;99572.78;5027158;28;20041;-83
2022/06/26 01:17:52;;;;;;;5.22;2.60;;;;;;;20.94;99.18;99569.66;5027319;28;20033;-83
2022/06/26 01:20:18;;;;;;;2.40;1.63;;;;;;;20.98;98.91;99556.97;5027925;28;20021;-83
2022/06/26 01:22:44;;;;;;;3.72;1.52;;;;;;;21.02;98.00;99559.38;5046985;28;20029;-83
2022/06/26 01:25:09;;;;;;;3.22;2.47;;;;;;;21.37;96.00;99575.09;5030975;28;20065;-83
2022/06/26 01:27:42;;;;;;;2.15;1.08;;;;;;;21.34;94.63;99572.59;5030964;28;20033;-83
2022/06/26 01:30:08;;;;;;;3.95;2.13;;;;;;;21.53;93.24;99583.09;5044202;28;20071;-83
2022/06/26 01:32:34;;;;;;;4.88;3.05;;;;;;;21.85;91.88;99615.09;5049903;28;20033;-82
2022/06/26 01:34:59;;;;;;;3.92;3.03;;;;;;;21.87;91.44;99612.31;5048966;28;20036;-83
2022/06/26 01:37:25;;;;;;;5.03;3.00;;;;;;;21.86;91.72;99627.59;5050197;28;20033;-83
2022/06/26 01:39:50;;;;;;;4.90;3.55;;;;;;;21.95;90.46;99618.06;5050734;28;20413;-84
2022/06/26 01:42:16;;;;;;;6.13;3.35;;;;;;;21.76;92.41;99619.22;5051425;28;20091;-83
2022/06/26 01:44:41;;;;;;;5.00;3.05;;;;;;;21.53;93.10;99599.19;5035496;28;20033;-84
2022/06/26 01:47:07;;;;;;;4.90;2.72;;;;;;;21.00;98.92;99596.09;5034297;28;20083;-85
2022/06/26 01:49:33;;;;;;;4.55;2.35;;;;;;;20.41;99.11;99579.88;5034923;28;20411;-86
2022/06/26 01:51:58;;;;;;;4.78;2.80;;;;;;;20.45;100.00;99593.94;5034902;28;20026;-85
2022/06/26 01:54:24;;;;;;;4.20;2.60;;;;;;;20.52;100.00;99595.34;5046374;28;20056;-85
2022/06/26 01:56:49;;;;;;;4.15;3.03;;;;;;;20.45;100.00;99597.50;5054956;28;20029;-86
2022/06/26 01:59:15;;;;;;;5.65;3.17;;;;;;;20.59;100.00;99588.69;5053712;28;20032;-86
2022/06/26 02:01:40;;;;;;;4.20;2.42;;;;;;;20.57;100.00;99601.28;5053675;28;20029;-85
2022/06/26 02:04:06;;;;;;;4.78;3.63;;;;;;;20.77;100.00;99596.63;5050238;28;20423;-85
2022/06/26 02:06:31;;;;;;;3.70;2.38;;;;;;;20.89;100.00;99598.56;5053697;28;20052;-86
2022/06/26 02:08:57;;;;;;;4.55;2.70;;;;;;;21.21;98.85;99609.16;5053119;28;20029;-86
2022/06/26 02:14:06;;;;;;;4.47;2.75;;;;;;;20.97;100.00;99588.25;5034255;28;20075;-85
2022/06/26 02:16:32;;;;;;;4.45;3.10;;;;;;;21.09;99.85;99622.38;5053817;28;20029;-86
2022/06/26 02:18:58;;;;;;;8.93;4.40;;;;;;;20.66;100.00;99589.22;5054182;28;20021;-86
2022/06/26 02:21:30;;;;;;;5.43;3.35;;;;;;;20.85;100.00;99618.47;5042235;28;20470;-86
2022/06/26 02:23:59;;;;;;;6.30;3.30;;;;;;;20.78;100.00;99595.69;5047863;28;20045;-85
2022/06/26 02:26:25;;;;;;;6.45;3.25;;;;;;;20.98;99.85;99600.72;5053651;28;20025;-86
2022/06/26 02:28:51;;;;;;;5.63;3.78;;;;;;;21.02;100.00;99614.78;5053173;28;20033;-85
2022/06/26 02:31:16;;;;;;;5.18;3.10;;;;;;;21.00;100.00;99619.38;5054105;28;20109;-85
2022/06/26 02:33:42;;;;;;;5.78;3.03;;;;;;;21.18;100.00;99637.06;5052039;28;20029;-85
2022/06/26 02:36:08;;;;;;;5.53;3.30;;;;;;;21.08;100.00;99633.19;5053184;28;20170;-85
2022/06/26 02:38:35;;;;;;;6.32;3.03;;;;;;;20.87;100.00;99609.38;5053402;28;20115;-85
2022/06/26 02:41:01;;;;;;;5.40;3.33;;;;;;;20.87;100.00;99622.78;5038458;28;20044;-84
2022/06/26 02:43:26;;;;;;;5.13;3.13;;;;;;;20.93;100.00;99634.97;5033865;28;20025;-85
2022/06/26 02:45:53;;;;;;;7.80;3.80;;;;;;;20.73;100.00;99620.94;5045943;28;20040;-85
2022/06/26 02:48:20;;;;;;;3.92;2.88;;;;;;;20.93;100.00;99635.84;5052760;28;20044;-85
2022/06/26 02:50:46;;;;;;;3.28;2.72;;;;;;;21.12;100.00;99640.09;5047635;28;20052;-86
2022/06/26 02:53:12;;;;;;;4.85;2.90;;;;;;;21.22;98.63;99627.84;5035859;28;20498;-86
2022/06/26 02:55:38;;;;;;;3.17;2.45;;;;;;;21.44;96.23;99629.25;5053478;28;20045;-85
2022/06/26 02:58:04;;;;;;;5.18;2.88;;;;;;;21.55;95.19;99613.41;5053108;28;20516;-85
2022/06/26 03:00:29;;;;;;;6.28;3.47;;;;;;;21.81;94.58;99635.03;5052923;28;20048;-85
2022/06/26 03:02:55;;;;;;;5.25;2.60;;;;;;;21.68;93.36;99605.44;5046944;28;20077;-85
2022/06/26 03:05:20;;;;;;;4.32;2.45;;;;;;;21.70;92.95;99589.22;5052467;28;20041;-86
2022/06/26 03:07:46;;;;;;;8.30;2.83;;;;;;;21.44;94.39;99603.28;5042842;28;20034;-85
2022/06/26 03:10:11;;;;;;;3.75;2.80;;;;;;;21.20;96.80;99588.69;5032663;28;20483;-85
2022/06/26 03:12:47;;;;;;;6.43;2.92;;;;;;;21.32;96.77;99620.13;5033272;28;20021;-85
2022/06/26 03:15:13;;;;;;;5.18;3.90;;;;;;;20.87;100.00;99612.06;5033138;28;20507;-84
2022/06/26 03:17:40;;;;;;;3.53;2.60;;;;;;;20.97;100.00;99619.56;5033438;28;20502;-86
2022/06/26 03:20:11;;;;;;;3.72;2.70;;;;;;;20.69;100.00;99600.59;5033816;28;20033;-87
2022/06/26 03:22:37;;;;;;;4.22;2.30;;;;;;;20.63;100.00;99600.94;5052727;28;20055;-86
2022/06/26 03:25:04;;;;;;;4.03;2.25;;;;;;;20.58;100.00;99595.84;5053075;28;20025;-86
2022/06/26 03:27:29;;;;;;;6.32;3.38;;;;;;;20.53;100.00;99592.56;5051698;28;20522;-85
2022/06/26 03:29:55;;;;;;;3.90;2.05;;;;;;;20.56;100.00;99595.06;5052484;28;20033;-87
2022/06/26 03:32:20;;;;;;;4.88;2.72;;;;;;;20.58;100.00;99587.78;5034113;28;20040;-86
2022/06/26 03:34:46;;;;;;;3.25;2.00;;;;;;;20.63;100.00;99605.44;5031641;28;20038;-85
2022/06/26 03:37:11;;;;;;;4.93;3.25;;;;;;;20.74;100.00;99616.41;5038070;28;20480;-84
2022/06/26 03:39:37;;;;;;;2.97;1.73;;;;;;;20.89;100.00;99607.47;5043551;28;20133;-88
2022/06/26 03:42:03;;;;;;;5.82;3.95;;;;;;;20.93;100.00;99619.75;5051316;28;20036;-87
2022/06/26 03:44:30;;;;;;;3.13;2.15;;;;;;;20.96;99.75;99620.50;5052561;28;20048;-83
2022/06/26 03:46:56;;;;;;;4.28;2.58;;;;;;;20.93;100.00;99618.91;5052756;28;20040;-86
2022/06/26 03:49:22;;;;;;;2.17;1.92;;;;;;;21.13;99.06;99628.41;5034360;28;20033;-84
2022/06/26 03:51:48;;;;;;;3.50;2.05;;;;;;;21.06;98.52;99613.66;5032374;28;20040;-85
2022/06/26 03:54:13;;;;;;;3.17;2.35;;;;;;;20.85;99.98;99631.88;5032652;28;20095;-84
2022/06/26 03:56:39;;;;;;;4.50;2.53;;;;;;;20.88;100.00;99621.84;5046882;28;20087;-85
2022/06/26 03:59:05;;;;;;;4.78;3.03;;;;;;;20.96;100.00;99623.19;5037533;28;20057;-86
2022/06/26 04:01:31;;;;;;;3.78;2.90;;;;;;;20.83;100.00;99629.28;5042488;28;20029;-85
2022/06/26 04:03:57;;;;;;;4.30;1.67;;;;;;;20.97;99.30;99614.22;5051567;28;20064;-84
2022/06/26 04:06:22;;;;;;;3.60;2.78;;;;;;;21.25;98.52;99637.53;5047023;28;20065;-84
2022/06/26 04:08:48;;;;;;;4.15;2.25;;;;;;;21.01;98.91;99615.75;5030678;28;20484;-85
2022/06/26 04:11:14;;;;;;;4.32;2.58;;;;;;;21.10;98.42;99625.91;5051846;28;20535;-86
2022/06/26 04:13:40;;;;;;;3.88;2.58;;;;;;;20.93;98.19;99621.59;5051382;28;20033;-86
2022/06/26 04:16:05;;;;;;;5.65;2.25;;;;;;;21.02;97.67;99633.56;5035269;28;20032;-86
2022/06/26 04:18:31;;;;;;;7.80;4.07;;;;;;;21.02;98.78;99655.00;5051373;28;20139;-86
2022/06/26 04:20:56;;;;;;;3.13;1.80;;;;;;;20.77;98.33;99618.91;5052109;28;20051;-85
2022/06/26 04:23:22;;;;;;;4.00;2.17;;;;;;;20.93;98.83;99637.66;5051718;28;20035;-86
2022/06/26 04:25:47;;;;;;;3.78;2.22;;;;;;;21.32;96.39;99668.44;5051008;28;20056;-87
2022/06/26 04:28:13;;;;;;;3.42;2.58;;;;;;;21.36;94.90;99666.41;5050735;28;20045;-86
2022/06/26 04:30:39;;;;;;;6.45;2.95;;;;;;;21.24;95.79;99642.06;5051179;28;20044;-87
2022/06/26 04:33:04;;;;;;;2.70;1.90;;;;;;;20.97;96.43;99654.44;5050661;28;20040;-86
2022/06/26 04:35:31;;;;;;;4.60;2.55;;;;;;;21.20;96.06;99637.81;5033126;28;20120;-85
2022/06/26 04:37:57;;;;;;;7.88;3.30;;;;;;;21.31;93.95;99618.41;5044682;28;20123;-87
2022/06/26 04:40:23;;;;;;;4.45;2.40;;;;;;;21.46;94.30;99646.13;5051395;28;20169;-86
2022/06/26 04:42:48;;;;;;;5.28;3.22;;;;;;;21.67;93.54;99651.16;5049651;28;20554;-85
2022/06/26 04:45:14;;;;;;;3.63;2.80;;;;;;;21.61;91.25;99618.38;5045685;28;20104;-85
2022/06/26 04:47:40;;;;;;;4.35;3.70;;;;;;;21.62;91.90;99627.28;5042624;28;20032;-84
2022/06/26 04:50:06;;;;;;;5.80;2.78;;;;;;;21.91;91.59;99659.53;5049879;28;20419;-85
2022/06/26 04:52:32;;;;;;;6.43;3.72;;;;;;;21.95;91.66;99637.75;5051265;28;20033;-85
2022/06/26 04:54:57;;;;;;;6.65;2.70;;;;;;;22.17;90.40;99634.53;5032301;28;20033;-85
2022/06/26 04:57:25;;;;;;;4.00;2.72;;;;;;;22.31;89.49;99631.00;5042895;28;20059;-85
2022/06/26 04:59:50;;;;;;;4.57;2.88;;;;;;;22.55;88.52;99649.16;5050952;28;20554;-86
2022/06/26 05:02:16;;;;;;;5.13;3.22;;;;;;;22.05;89.52;99604.94;5051119;28;20120;-85
2022/06/26 05:04:41;;;;;;;7.03;3.25;;;;;;;22.13;90.72;99634.84;5051002;28;20033;-86
2022/06/26 05:07:07;;;;;;;3.95;2.92;;;;;;;21.63;93.74;99623.66;5041342;28;20041;-86
2022/06/26 05:09:32;;;;;;;6.38;4.05;;;;;;;21.89;92.46;99656.94;5034779;28;20120;-85
2022/06/26 05:11:58;;;;;;;5.72;2.78;;;;;;;21.74;93.75;99652.50;5049599;28;20029;-84
2022/06/26 05:14:24;;;;;;;4.47;2.92;;;;;;;21.79;92.54;99642.34;5030839;28;20033;-84
2022/06/26 05:16:50;;;;;;;5.13;3.25;;;;;;;21.95;91.29;99637.75;5030092;28;20021;-84
2022/06/26 05:19:15;;;;;;;6.38;2.78;;;;;;;21.86;92.71;99646.38;5031136;28;20022;-84
2022/06/26 05:21:41;;;;;;;5.80;3.28;;;;;;;22.18;92.57;99668.50;5050897;28;20051;-84
2022/06/26 05:24:06;;;;;;;6.15;3.92;;;;;;;22.32;91.53;99647.97;5050416;28;20029;-84
2022/06/26 05:26:32;;;;;;;5.68;3.75;;;;;;;22.60;90.18;99662.31;5041081;28;20053;-84
2022/06/26 05:28:57;;;;;;;4.70;2.85;;;;;;;22.57;90.28;99658.00;5050899;28;20029;-84
2022/06/26 05:31:23;;;;;;;8.93;5.93;;;;;;;22.80;90.14;99667.25;5049431;28;20048;-85
2022/06/26 05:33:49;;;;;;;3.78;2.58;;;;;;;22.66;92.04;99668.16;5031578;28;20473;-84
2022/06/26 05:36:15;;;;;;;4.88;3.13;;;;;;;22.70;91.18;99648.16;5046938;28;20494;-84
2022/06/26 05:38:41;;;;;;;6.82;3.97;;;;;;;22.91;90.02;99679.09;5050974;28;20085;-85
2022/06/26 05:41:06;;;;;;;2.92;2.22;;;;;;;23.04;88.38;99662.03;5050592;28;20037;-85
2022/06/26 05:43:32;;;;;;;5.68;2.80;;;;;;;23.14;88.20;99675.78;5049561;28;20037;-85
2022/06/26 05:45:58;;;;;;;5.32;2.90;;;;;;;22.85;88.29;99686.63;5048369;28;20037;-86
2022/06/26 05:48:24;;;;;;;4.82;2.85;;;;;;;23.17;88.14;99688.16;5049956;28;20044;-85
2022/06/26 05:50:50;;;;;;;4.88;3.40;;;;;;;23.07;87.97;99696.81;5047802;28;20117;-85
2022/06/26 05:53:17;;;;;;;4.20;2.28;;;;;;;22.90;89.39;99699.75;5030574;28;20057;-86
2022/06/26 05:55:42;;;;;;;4.60;3.10;;;;;;;22.81;88.06;99708.44;5030552;28;20038;-87
2022/06/26 05:58:08;;;;;;;3.75;2.35;;;;;;;22.74;88.78;99697.22;5045196;28;20029;-85
2022/06/26 06:00:34;;;;;;;3.55;2.47;;;;;;;23.19;87.31;99688.94;5050609;28;20490;-85
2022/06/26 06:02:59;;;;;;;7.65;3.67;;;;;;;23.22;88.00;99704.88;5050436;28;20029;-84
2022/06/26 06:05:28;;;;;;;5.38;2.60;;;;;;;23.61;86.97;99703.09;5039219;28;20036;-86
2022/06/26 06:07:54;;;;;;;3.42;2.63;;;;;;;23.69;85.20;99703.41;5032210;28;20033;-85
2022/06/26 06:10:23;;;;;;;4.85;2.33;;;;;;;23.74;84.98;99687.81;5049628;28;20036;-85
2022/06/26 06:12:50;;;;;;;5.80;3.42;;;;;;;23.37;86.53;99673.34;5050451;28;20114;-87
2022/06/26 06:15:16;;;;;;;3.22;2.20;;;;;;;23.20;87.58;99699.59;5038079;28;20030;-89
2022/06/26 06:17:41;;;;;;;3.97;2.75;;;;;;;23.40;87.66;99691.97;5041037;28;20414;-89
2022/06/26 06:20:12;;;;;;;4.03;3.22;;;;;;;23.94;86.10;99713.38;5050612;28;20033;-88
2022/06/26 06:22:43;;;;;;;5.13;2.83;;;;;;;24.19;83.73;99710.75;5049474;28;20122;-89
2022/06/26 06:25:09;;;;;;;4.38;2.28;;;;;;;24.06;80.49;99676.63;5049854;28;20033;-91
2022/06/26 06:27:35;;;;;;;5.43;2.92;;;;;;;24.10;80.85;99706.91;5051116;28;20075;-89
2022/06/26 06:30:01;;;;;;;4.25;3.20;;;;;;;23.88;82.67;99694.97;5035652;28;20037;-89
2022/06/26 06:32:27;;;;;;;6.28;2.97;;;;;;;24.10;84.72;99690.75;5044706;28;20033;-89
2022/06/26 06:34:52;;;;;;;6.93;2.58;;;;;;;24.56;81.49;99702.72;5052593;28;20078;-90
2022/06/26 06:37:18;;;;;;;5.07;3.40;;;;;;;24.63;78.30;99704.03;5052437;28;20041;-88
2022/06/26 06:39:43;;;;;;;3.30;2.38;;;;;;;24.69;78.13;99705.44;5052041;28;20112;-88
2022/06/26 06:42:09;;;;;;;3.17;2.22;;;;;;;24.63;78.02;99710.28;5046420;28;20061;-88
2022/06/26 06:44:35;;;;;;;2.40;1.48;;;;;;;25.11;75.21;99706.72;5033800;28;20107;-90
2022/06/26 06:47:00;;;;;;;4.40;2.25;;;;;;;24.88;76.93;99699.50;5045863;28;20029;-91
2022/06/26 06:49:26;;;;;;;2.60;1.48;;;;;;;24.74;74.99;99678.97;5053657;28;20501;-87
2022/06/26 06:51:52;;;;;;;2.35;1.58;;;;;;;24.67;76.14;99687.50;5048928;28;20028;-86
2022/06/26 06:54:18;;;;;;;3.08;2.00;;;;;;;24.96;75.25;99684.47;5052618;28;20048;-85
2022/06/26 06:56:44;;;;;;;3.17;2.25;;;;;;;24.76;74.94;99679.69;5052585;28;20553;-87
2022/06/26 06:59:09;;;;;;;3.38;1.80;;;;;;;24.58;73.59;99693.59;5053422;28;20033;-86
2022/06/26 07:01:35;;;;;;;2.78;1.73;;;;;;;24.63;73.78;99695.94;5050089;28;20517;-87
2022/06/26 07:04:01;;;;;;;3.70;2.15;;;;;;;24.54;72.27;99710.91;5052573;28;20553;-85
2022/06/26 07:06:27;;;;;;;2.60;1.23;;;;;;;24.28;71.83;99683.16;5041016;28;20029;-86
2022/06/26 07:08:52;;;;;;;3.38;2.03;;;;;;;24.42;72.90;99699.22;5050879;28;20106;-86
2022/06/26 07:11:19;;;;;;;2.70;1.55;;;;;;;24.31;73.65;99713.47;5051554;28;20384;-86
2022/06/26 07:13:45;;;;;;;3.55;1.90;;;;;;;24.37;71.19;99703.19;5050941;28;20566;-85
2022/06/26 07:16:10;;;;;;;7.85;2.17;;;;;;;24.58;73.87;99706.22;5051119;28;20029;-85
2022/06/26 07:18:36;;;;;;;6.30;2.33;;;;;;;24.70;71.55;99686.44;5052182;28;20111;-85
2022/06/26 07:21:01;;;;;;;2.72;1.30;;;;;;;25.08;71.25;99709.66;5053216;28;20052;-85
2022/06/26 07:23:27;;;;;;;1.67;1.35;;;;;;;24.92;71.58;99696.47;5052760;28;20029;-85
2022/06/26 07:25:52;;;;;;;4.55;3.15;;;;;;;24.44;71.18;99689.16;5052249;28;20479;-84
2022/06/26 07:28:18;;;;;;;3.92;2.55;;;;;;;24.34;72.24;99680.00;5035503;28;20037;-87
2022/06/26 07:30:44;;;;;;;3.75;1.58;;;;;;;24.44;73.03;99716.13;5032420;28;20060;-86
2022/06/26 07:35:56;;;;;;;1.85;1.40;;;;;;;24.73;73.06;99707.78;5021126;28;20046;-86
2022/06/26 07:38:21;;;;;;;3.33;2.15;;;;;;;24.92;69.42;99688.38;5038726;28;20040;-85
2022/06/26 07:40:47;;;;;;;2.38;1.70;;;;;;;25.26;69.52;99685.81;5037425;28;20041;-86
2022/06/26 07:43:12;;;;;;;2.83;1.95;;;;;;;24.81;69.07;99689.19;5034679;28;20021;-85
2022/06/26 07:45:37;;;;;;;3.70;2.40;;;;;;;25.04;70.54;99705.50;5043366;28;20044;-85
2022/06/26 07:48:03;;;;;;;1.73;1.35;;;;;;;25.67;67.70;99705.22;5046500;28;20479;-86
2022/06/26 07:50:29;;;;;;;3.97;2.50;;;;;;;26.18;65.22;99704.84;5040811;28;20036;-86
2022/06/26 07:52:55;;;;;;;3.53;2.25;;;;;;;26.03;66.54;99690.72;5032737;28;20073;-87
2022/06/26 07:55:20;;;;;;;2.25;1.50;;;;;;;26.45;65.72;99696.34;5032427;28;20030;-87
2022/06/26 07:57:46;;;;;;;2.70;1.33;;;;;;;26.47;60.37;99692.66;5032610;28;20506;-85
2022/06/26 08:00:12;;;;;;;3.83;1.70;;;;;;;26.78;61.46;99718.91;5032503;28;20021;-86
2022/06/26 08:02:37;;;;;;;2.58;1.42;;;;;;;27.14;63.66;99716.88;5043635;28;20029;-86
2022/06/26 08:05:03;;;;;;;3.20;2.13;;;;;;;27.43;59.53;99701.88;5052466;28;20028;-86
2022/06/26 08:07:29;;;;;;;2.35;1.40;;;;;;;26.89;58.66;99698.25;5044689;28;20090;-86
2022/06/26 08:09:54;;;;;;;2.97;1.60;;;;;;;26.98;57.63;99690.19;5031596;28;20037;-86
2022/06/26 08:12:20;;;;;;;4.82;1.20;;;;;;;27.09;57.83;99680.34;5033474;28;20033;-86
2022/06/26 08:14:45;;;;;;;2.80;2.03;;;;;;;27.16;54.41;99705.91;5040629;28;20554;-85
2022/06/26 08:17:11;;;;;;;2.90;1.27;;;;;;;27.20;55.43;99703.78;5048661;28;20029;-86
2022/06/26 08:19:36;;;;;;;2.83;1.67;;;;;;;27.91;54.13;99678.78;5038933;28;20086;-83
2022/06/26 08:22:02;;;;;;;2.35;1.67;;;;;;;28.16;53.42;99699.19;5040123;28;20415;-83
2022/06/26 08:24:28;;;;;;;1.52;0.95;;;;;;;28.42;56.14;99674.31;5044252;28;20032;-85
2022/06/26 08:26:54;;;;;;;1.73;1.08;;;;;;;29.10;49.84;99683.47;5049123;28;20102;-84
2022/06/26 08:29:20;;;;;;;3.08;2.15;;;;;;;28.96;50.75;99683.00;5051330;28;20025;-85
2022/06/26 08:31:46;;;;;;;1.73;1.27;;;;;;;28.96;50.07;99674.88;5046732;28;20400;-84
2022/06/26 08:34:12;;;;;;;4.72;2.33;;;;;;;29.51;50.71;99666.16;5047605;28;20033;-85
2022/06/26 08:36:38;;;;;;;3.22;1.80;;;;;;;29.68;50.24;99670.84;5046008;28;20094;-83
2022/06/26 08:39:05;;;;;;;3.88;2.83;;;;;;;29.20;54.73;99683.47;5050512;28;20056;-83
2022/06/26 08:41:38;;;;;;;2.50;1.67;;;;;;;28.93;49.94;99652.44;5050456;28;20029;-83
2022/06/26 08:44:04;;;;;;;6.68;2.63;;;;;;;28.83;50.23;99681.44;5049866;28;20596;-85
2022/06/26 08:46:35;;;;;;;3.05;2.17;;;;;;;28.76;49.38;99677.56;5037935;28;20029;-84
2022/06/26 08:49:02;;;;;;;8.25;2.63;;;;;;;28.69;49.02;99673.69;5040172;28;20025;-84
2022/06/26 08:51:27;;;;;;;3.75;2.17;;;;;;;29.22;52.19;99667.88;5050425;28;20554;-86
2022/06/26 08:53:56;;;;;;;3.95;2.10;;;;;;;29.58;54.22;99656.41;5042664;28;20148;-85
2022/06/26 08:56:22;;;;;;;3.03;2.28;;;;;;;29.73;53.70;99692.97;5050723;28;20032;-85
2022/06/26 08:58:48;;;;;;;2.30;1.48;;;;;;;29.50;49.60;99678.88;5048793;28;20094;-87
2022/06/26 09:01:14;;;;;;;2.58;1.73;;;;;;;29.67;50.22;99695.44;5041471;28;20487;-87
2022/06/26 09:03:39;;;;;;;3.28;1.67;;;;;;;29.27;51.36;99676.47;5035391;28;20067;-86
2022/06/26 09:06:05;;;;;;;2.78;1.83;;;;;;;29.62;48.66;99690.44;5049026;28;20029;-85
2022/06/26 09:08:42;;;;;;;2.85;2.00;;;;;;;29.02;54.35;99694.16;5050342;28;20029;-87
2022/06/26 09:11:07;;;;;;;2.78;1.20;;;;;;;28.93;49.85;99671.44;5048247;28;20033;-86
2022/06/26 09:13:42;;;;;;;2.65;1.92;;;;;;;28.88;50.01;99676.41;5029494;28;20090;-85
2022/06/26 09:16:08;;;;;;;5.63;1.90;;;;;;;29.34;48.54;99679.47;5030645;28;20049;-84
2022/06/26 09:18:36;;;;;;;3.75;2.50;;;;;;;29.80;48.88;99696.88;5046253;28;20538;-85
2022/06/26 09:21:04;;;;;;;4.68;1.50;;;;;;;30.09;49.64;99698.66;5029476;28;20427;-84
2022/06/26 09:23:34;;;;;;;2.63;1.60;;;;;;;30.78;48.60;99701.06;5031163;28;20036;-84
2022/06/26 09:26:03;;;;;;;2.08;1.83;;;;;;;30.41;46.58;99674.78;5033247;28;20038;-85
2022/06/26 09:28:29;;;;;;;2.72;1.70;;;;;;;30.84;45.28;99692.25;5050731;28;20043;-85
2022/06/26 09:31:04;;;;;;;1.25;1.05;;;;;;;30.28;44.51;99653.34;5049612;28;20041;-83
2022/06/26 09:33:33;;;;;;;2.35;1.30;;;;;;;30.61;44.81;99673.63;5050657;28;20040;-83
2022/06/26 09:36:00;;;;;;;8.40;1.52;;;;;;;30.41;44.64;99678.34;5051041;28;20029;-83
2022/06/26 09:38:27;;;;;;;2.45;1.20;;;;;;;30.48;49.33;99679.44;5050318;28;20487;-85
2022/06/26 09:41:01;;;;;;;3.83;2.65;;;;;;;29.76;47.55;99667.38;5050213;28;20036;-85
2022/06/26 09:43:34;;;;;;;2.72;1.08;;;;;;;29.70;46.00;99668.81;5049761;28;20021;-84
2022/06/26 09:46:02;;;;;;;2.88;1.80;;;;;;;29.85;47.67;99690.16;5049438;28;20024;-82
2022/06/26 09:48:28;;;;;;;2.20;1.73;;;;;;;30.34;44.11;99671.78;5050036;28;20518;-83
2022/06/26 09:50:55;;;;;;;2.15;1.17;;;;;;;29.60;44.06;99679.72;5049860;28;20029;-82
2022/06/26 09:53:22;;;;;;;1.95;0.95;;;;;;;29.66;44.58;99681.00;5050171;28;20195;-82
2022/06/26 09:55:50;;;;;;;1.40;1.05;;;;;;;29.69;46.31;99688.00;5050804;28;20029;-85
2022/06/26 09:58:16;;;;;;;2.58;1.30;;;;;;;29.30;46.98;99659.03;5050395;28;20118;-86
2022/06/26 10:06:25;;;;;;;1.20;1.02;;;;;;;29.33;48.38;99663.31;5050549;28;20047;-86
2022/06/26 10:06:36;;;;;;;7.10;2.75;;;;;;;28.82;48.41;99636.28;5054116;28;20040;-84
2022/06/26 10:09:02;;;;;;;2.67;1.63;;;;;;;28.91;51.73;99670.72;5053846;28;20044;-85
2022/06/26 10:11:30;;;;;;;2.88;1.83;;;;;;;28.85;50.03;99665.84;5054397;28;20082;-85
2022/06/26 10:14:28;;;;;;;1.42;1.10;;;;;;;28.81;49.35;99679.84;5053506;28;20033;-84
2022/06/26 10:17:05;;;;;;;1.38;0.90;;;;;;;28.64;48.79;99682.25;5049372;28;20137;-83
2022/06/26 10:20:02;;;;;;;2.63;1.52;;;;;;;28.76;48.28;99680.25;5054095;28;20044;-82
2022/06/26 10:22:38;;;;;;;4.55;1.85;;;;;;;28.52;48.89;99659.78;5049322;28;20041;-83
2022/06/26 10:25:05;;;;;;;3.90;2.00;;;;;;;28.85;50.70;99670.44;5053748;28;20032;-82
2022/06/26 10:27:35;;;;;;;1.98;1.15;;;;;;;28.33;50.33;99655.16;5053483;28;20048;-82
2022/06/26 10:30:13;;;;;;;1.13;1.02;;;;;;;28.28;51.28;99679.09;5053968;28;20075;-82
2022/06/26 10:32:39;;;;;;;1.83;1.13;;;;;;;28.29;51.10;99661.00;5053782;28;20048;-81
2022/06/26 10:35:05;;;;;;;2.22;1.45;;;;;;;28.26;51.32;99636.88;5053261;28;20044;-81
2022/06/26 10:37:44;;;;;;;4.38;2.00;;;;;;;28.69;51.29;99671.84;5043967;28;20488;-82
2022/06/26 10:40:13;;;;;;;7.40;2.58;;;;;;;28.65;50.53;99664.97;5039521;28;20033;-84
2022/06/26 10:42:53;;;;;;;2.72;1.95;;;;;;;28.44;51.42;99675.03;5039823;28;20033;-82
2022/06/26 10:45:35;;;;;;;3.67;1.80;;;;;;;28.65;51.90;99648.69;5034093;28;20025;-82
2022/06/26 10:48:05;;;;;;;2.88;1.65;;;;;;;28.60;52.01;99641.97;5033142;28;20033;-81
2022/06/26 10:50:35;;;;;;;5.05;1.95;;;;;;;28.73;50.07;99647.97;5033776;28;20487;-81
2022/06/26 10:53:26;;;;;;;2.47;1.25;;;;;;;29.15;49.90;99666.75;5033715;28;20057;-83
2022/06/26 10:55:51;;;;;;;4.30;2.45;;;;;;;29.01;49.93;99664.44;5033910;28;20030;-82
2022/06/26 10:58:27;;;;;;;3.58;1.98;;;;;;;29.08;51.00;99638.44;5033344;28;20083;-83
2022/06/26 11:00:56;;;;;;;4.10;1.88;;;;;;;28.97;51.64;99654.88;5036639;28;20411;-82
2022/06/26 11:03:21;;;;;;;2.45;1.40;;;;;;;29.08;50.78;99669.16;5033417;28;20057;-83
2022/06/26 11:06:10;;;;;;;2.20;1.33;;;;;;;29.13;50.25;99648.88;5032370;28;20076;-83
2022/06/26 11:08:39;;;;;;;3.45;1.95;;;;;;;29.32;49.71;99634.44;5033406;28;20029;-83
2022/06/26 11:11:09;;;;;;;2.25;1.52;;;;;;;29.15;51.34;99645.00;5033164;28;20045;-82
2022/06/26 11:13:48;;;;;;;1.75;1.30;;;;;;;29.40;51.41;99640.84;5032517;28;20033;-84
2022/06/26 11:16:13;;;;;;;4.18;1.58;;;;;;;29.40;51.68;99654.44;5032613;28;20022;-85
2022/06/26 11:18:39;;;;;;;2.35;1.60;;;;;;;29.57;51.69;99641.13;5040511;28;20560;-85
2022/06/26 11:21:04;;;;;;;2.33;1.35;;;;;;;29.26;50.33;99616.88;5052908;28;20025;-85
2022/06/26 11:23:33;;;;;;;3.60;1.92;;;;;;;29.61;50.15;99634.38;5042423;28;20029;-85
2022/06/26 11:26:01;;;;;;;2.63;1.73;;;;;;;29.28;50.38;99636.59;5031938;28;20037;-86
2022/06/26 11:28:31;;;;;;;5.40;1.75;;;;;;;29.08;51.29;99633.00;5031429;28;20427;-83
2022/06/26 11:30:57;;;;;;;3.53;1.92;;;;;;;28.92;53.07;99623.56;5033598;28;20030;-84
2022/06/26 11:33:25;;;;;;;2.10;1.40;;;;;;;28.77;53.25;99622.28;5051343;28;20033;-84
2022/06/26 11:35:52;;;;;;;3.08;1.52;;;;;;;28.87;53.69;99635.84;5051702;28;20025;-84
2022/06/26 11:38:18;;;;;;;2.28;1.85;;;;;;;28.63;52.76;99636.28;5035478;28;20077;-84